Airfield :
LOGIN :

Register | Disclaimer

   EN    FR    IT 

 










Legend :    VFR   Marginal VFR   IFR   Intensive IFR   Very Intensive IFR
Visi :
Ceiling :
>= 8 km
>= 3000ft
5 to 8 km
1000 to 3000 ft
1500m to 5 km
500 to 1000 ft
800 to 1500m
200 to 500 ft
< 800m
< 200 ft
Symbols :   Thunderstorms  Fog  Heavy snow  Heavy precipitations  Wind > 20 kt
SIGMETs :     Misc.  Thunderstorms  Icing  Turbulence  Mountain Waves  Volcanic Ashes






- Airport Elevation : 327 ft
- IATA code : BHX


EGBB - Birmingham

CURRENT METAR :
  • 192150Z 10007KT 9000 -RA SCT006 BKN022 BKN030 13/12 Q1011 RERA

EXPIRED METARs :
  • 192120Z 09007KT 7000 RA BKN011 OVC030 13/12 Q1011
  • 192050Z 09008KT 9999 BKN027 OVC032 14/11 Q1011
  • 192020Z 10009KT 9999 SCT024 OVC029 14/11 Q1011
  • 191950Z 09008KT 060V120 9999 FEW016 BKN033 14/11 Q1011
  • 191920Z 09008KT 9999 FEW017 BKN034 15/11 Q1011

TAF TAF EGBB
Valid from the 19 at 18:00 until the 20 at 18:00 UTC


191656Z 1918/2018 11010KT 9999 SCT020
TEMPO 1918/2012 6000 -RADZ BKN012
PROB40
TEMPO 1919/2006 4000 RADZ BKN008
BECMG 2000/2003 05006KT
PROB30
TEMPO 2012/2018 BKN014
ATIS : +44 121 780 0910



MET'MAP, your aeronautical weather chart ! - Copyright ORBIFLY December 2007 - Disclaimer

ORBIFLY MET'MAP TEAM :

Programming & Development : Alexandra Zaïnal
Concept & original design : Baudouin d'Aumeries
Assistance for programming : Marc-Olivier Méhu
Technical & hardware support : Manuel Goepfert

Contact : metmap@orbifly.com




SOURCES & CREDITS :

   NOAA